sensor_id;sensor_type;location;lat;lon;timestamp;temperature;humidity
21306;DHT22;10812;51.838;5.838;2023-07-20T00:00:05;17.10;99.90
21306;DHT22;10812;51.838;5.838;2023-07-20T00:02:33;17.10;99.90
21306;DHT22;10812;51.838;5.838;2023-07-20T00:05:01;17.20;99.90
21306;DHT22;10812;51.838;5.838;2023-07-20T00:07:31;17.10;99.90
21306;DHT22;10812;51.838;5.838;2023-07-20T00:09:59;17.10;99.90
21306;DHT22;10812;51.838;5.838;2023-07-20T00:12:27;17.10;99.90
21306;DHT22;10812;51.838;5.838;2023-07-20T00:14:55;17.00;99.90
21306;DHT22;10812;51.838;5.838;2023-07-20T00:17:23;17.00;99.90
21306;DHT22;10812;51.838;5.838;2023-07-20T00:19:51;17.00;99.90
21306;DHT22;10812;51.838;5.838;2023-07-20T00:22:19;17.00;99.90
21306;DHT22;10812;51.838;5.838;2023-07-20T00:24:49;16.90;99.90
21306;DHT22;10812;51.838;5.838;2023-07-20T00:27:17;16.80;99.90
21306;DHT22;10812;51.838;5.838;2023-07-20T00:29:45;16.90;99.90
21306;DHT22;10812;51.838;5.838;2023-07-20T00:32:13;16.90;99.90
21306;DHT22;10812;51.838;5.838;2023-07-20T00:34:41;16.90;99.90
21306;DHT22;10812;51.838;5.838;2023-07-20T00:37:09;16.90;99.90
21306;DHT22;10812;51.838;5.838;2023-07-20T00:39:37;16.90;99.90
21306;DHT22;10812;51.838;5.838;2023-07-20T00:42:07;16.80;99.90
21306;DHT22;10812;51.838;5.838;2023-07-20T00:44:35;16.70;99.90
21306;DHT22;10812;51.838;5.838;2023-07-20T00:47:03;16.70;99.90
21306;DHT22;10812;51.838;5.838;2023-07-20T00:49:31;16.70;99.90
21306;DHT22;10812;51.838;5.838;2023-07-20T00:52:00;16.60;99.90
21306;DHT22;10812;51.838;5.838;2023-07-20T00:54:29;16.60;99.90
21306;DHT22;10812;51.838;5.838;2023-07-20T00:56:58;16.50;99.90
21306;DHT22;10812;51.838;5.838;2023-07-20T00:59:27;16.50;99.90
21306;DHT22;10812;51.838;5.838;2023-07-20T01:01:55;16.40;99.90
21306;DHT22;10812;51.838;5.838;2023-07-20T01:04:24;16.40;99.90
21306;DHT22;10812;51.838;5.838;2023-07-20T01:06:58;16.30;99.90
21306;DHT22;10812;51.838;5.838;2023-07-20T01:09:33;16.30;99.90
21306;DHT22;10812;51.838;5.838;2023-07-20T01:12:07;16.30;99.90
21306;DHT22;10812;51.838;5.838;2023-07-20T01:14:37;16.30;99.90
21306;DHT22;10812;51.838;5.838;2023-07-20T01:17:06;16.30;99.90
21306;DHT22;10812;51.838;5.838;2023-07-20T01:19:34;16.20;99.90
21306;DHT22;10812;51.838;5.838;2023-07-20T01:22:09;16.30;99.90
21306;DHT22;10812;51.838;5.838;2023-07-20T01:32:14;16.20;99.90
21306;DHT22;10812;51.838;5.838;2023-07-20T01:34:47;16.20;99.90
21306;DHT22;10812;51.838;5.838;2023-07-20T01:37:17;16.20;99.90
21306;DHT22;10812;51.838;5.838;2023-07-20T01:39:46;16.20;99.90
21306;DHT22;10812;51.838;5.838;2023-07-20T01:42:14;16.30;99.90
21306;DHT22;10812;51.838;5.838;2023-07-20T01:44:43;16.30;99.90
21306;DHT22;10812;51.838;5.838;2023-07-20T01:47:12;16.20;99.90
21306;DHT22;10812;51.838;5.838;2023-07-20T01:49:40;16.20;99.90
21306;DHT22;10812;51.838;5.838;2023-07-20T01:52:08;16.20;99.90
21306;DHT22;10812;51.838;5.838;2023-07-20T01:54:36;16.20;99.90
21306;DHT22;10812;51.838;5.838;2023-07-20T01:57:05;16.20;99.90
21306;DHT22;10812;51.838;5.838;2023-07-20T01:59:33;16.30;99.90
21306;DHT22;10812;51.838;5.838;2023-07-20T02:02:01;16.30;99.90
21306;DHT22;10812;51.838;5.838;2023-07-20T02:04:30;16.20;99.90
21306;DHT22;10812;51.838;5.838;2023-07-20T02:06:58;16.20;99.90
21306;DHT22;10812;51.838;5.838;2023-07-20T02:09:27;16.30;99.90
21306;DHT22;10812;51.838;5.838;2023-07-20T02:11:55;16.20;99.90
21306;DHT22;10812;51.838;5.838;2023-07-20T02:14:23;16.20;99.90
21306;DHT22;10812;51.838;5.838;2023-07-20T02:16:51;16.20;99.90
21306;DHT22;10812;51.838;5.838;2023-07-20T02:19:21;16.20;99.90
21306;DHT22;10812;51.838;5.838;2023-07-20T02:21:50;16.20;99.90
21306;DHT22;10812;51.838;5.838;2023-07-20T02:24:18;16.10;99.90
21306;DHT22;10812;51.838;5.838;2023-07-20T02:26:46;16.00;99.90
21306;DHT22;10812;51.838;5.838;2023-07-20T02:29:14;16.00;99.90
21306;DHT22;10812;51.838;5.838;2023-07-20T02:31:42;16.00;99.90
21306;DHT22;10812;51.838;5.838;2023-07-20T02:34:10;16.00;99.90
21306;DHT22;10812;51.838;5.838;2023-07-20T02:36:38;15.90;99.90
21306;DHT22;10812;51.838;5.838;2023-07-20T02:39:10;15.90;99.90
21306;DHT22;10812;51.838;5.838;2023-07-20T02:41:38;15.70;99.90
21306;DHT22;10812;51.838;5.838;2023-07-20T02:44:06;15.60;99.90
21306;DHT22;10812;51.838;5.838;2023-07-20T02:46:34;15.60;99.90
21306;DHT22;10812;51.838;5.838;2023-07-20T02:49:03;15.60;99.90
21306;DHT22;10812;51.838;5.838;2023-07-20T02:51:31;15.60;99.90
21306;DHT22;10812;51.838;5.838;2023-07-20T02:53:59;15.60;99.90
21306;DHT22;10812;51.838;5.838;2023-07-20T02:56:29;15.60;99.90
21306;DHT22;10812;51.838;5.838;2023-07-20T02:58:57;15.60;99.90
21306;DHT22;10812;51.838;5.838;2023-07-20T03:06:49;15.20;99.90
21306;DHT22;10812;51.838;5.838;2023-07-20T03:09:17;15.10;99.90
21306;DHT22;10812;51.838;5.838;2023-07-20T03:11:47;15.10;99.90
21306;DHT22;10812;51.838;5.838;2023-07-20T03:14:15;15.00;99.90
21306;DHT22;10812;51.838;5.838;2023-07-20T03:16:43;14.90;99.90
21306;DHT22;10812;51.838;5.838;2023-07-20T03:19:11;14.90;99.90
21306;DHT22;10812;51.838;5.838;2023-07-20T03:21:39;14.80;99.90
21306;DHT22;10812;51.838;5.838;2023-07-20T03:24:08;14.80;99.90
21306;DHT22;10812;51.838;5.838;2023-07-20T03:26:36;14.80;99.90
21306;DHT22;10812;51.838;5.838;2023-07-20T03:29:05;14.70;99.90
21306;DHT22;10812;51.838;5.838;2023-07-20T03:31:33;14.70;99.90
21306;DHT22;10812;51.838;5.838;2023-07-20T03:34:02;14.70;99.90
21306;DHT22;10812;51.838;5.838;2023-07-20T03:36:30;14.70;99.90
21306;DHT22;10812;51.838;5.838;2023-07-20T03:38:58;14.70;99.90
21306;DHT22;10812;51.838;5.838;2023-07-20T03:41:28;14.60;99.90
21306;DHT22;10812;51.838;5.838;2023-07-20T03:43:57;14.60;99.90
21306;DHT22;10812;51.838;5.838;2023-07-20T03:46:26;14.60;99.90
21306;DHT22;10812;51.838;5.838;2023-07-20T03:48:54;14.60;99.90
21306;DHT22;10812;51.838;5.838;2023-07-20T03:51:22;14.60;99.90
21306;DHT22;10812;51.838;5.838;2023-07-20T03:53:50;14.60;99.90
21306;DHT22;10812;51.838;5.838;2023-07-20T03:56:18;14.60;99.90
21306;DHT22;10812;51.838;5.838;2023-07-20T03:58:47;14.50;99.90
21306;DHT22;10812;51.838;5.838;2023-07-20T04:01:15;14.60;99.90
21306;DHT22;10812;51.838;5.838;2023-07-20T04:03:44;14.60;99.90
21306;DHT22;10812;51.838;5.838;2023-07-20T04:06:15;14.50;99.90
21306;DHT22;10812;51.838;5.838;2023-07-20T04:08:44;14.60;99.90
21306;DHT22;10812;51.838;5.838;2023-07-20T04:11:14;14.60;99.90
21306;DHT22;10812;51.838;5.838;2023-07-20T04:13:42;14.70;99.90
21306;DHT22;10812;51.838;5.838;2023-07-20T04:16:10;14.70;99.90
21306;DHT22;10812;51.838;5.838;2023-07-20T04:18:38;14.70;99.90
21306;DHT22;10812;51.838;5.838;2023-07-20T04:21:08;14.70;99.90
21306;DHT22;10812;51.838;5.838;2023-07-20T04:23:36;14.70;99.90
21306;DHT22;10812;51.838;5.838;2023-07-20T04:26:04;14.70;99.90
21306;DHT22;10812;51.838;5.838;2023-07-20T04:28:33;14.70;99.90
21306;DHT22;10812;51.838;5.838;2023-07-20T04:31:09;14.80;99.90
21306;DHT22;10812;51.838;5.838;2023-07-20T04:33:38;14.80;99.90
21306;DHT22;10812;51.838;5.838;2023-07-20T04:36:07;14.90;99.90
21306;DHT22;10812;51.838;5.838;2023-07-20T04:38:35;14.90;99.90
21306;DHT22;10812;51.838;5.838;2023-07-20T04:41:04;14.90;99.90
21306;DHT22;10812;51.838;5.838;2023-07-20T04:43:32;15.00;99.90
21306;DHT22;10812;51.838;5.838;2023-07-20T04:46:00;15.10;99.90
21306;DHT22;10812;51.838;5.838;2023-07-20T04:48:28;15.10;99.90
21306;DHT22;10812;51.838;5.838;2023-07-20T04:50:56;15.20;99.90
21306;DHT22;10812;51.838;5.838;2023-07-20T04:53:25;15.30;99.90
21306;DHT22;10812;51.838;5.838;2023-07-20T04:55:53;15.30;99.90
21306;DHT22;10812;51.838;5.838;2023-07-20T04:58:22;15.30;99.90
21306;DHT22;10812;51.838;5.838;2023-07-20T05:00:50;15.40;99.90
21306;DHT22;10812;51.838;5.838;2023-07-20T05:03:18;15.50;99.90
21306;DHT22;10812;51.838;5.838;2023-07-20T05:09:48;15.80;99.90
21306;DHT22;10812;51.838;5.838;2023-07-20T05:12:16;15.80;99.90
21306;DHT22;10812;51.838;5.838;2023-07-20T05:14:46;15.90;99.90
21306;DHT22;10812;51.838;5.838;2023-07-20T05:17:14;16.00;99.90
21306;DHT22;10812;51.838;5.838;2023-07-20T05:19:42;16.10;99.90
21306;DHT22;10812;51.838;5.838;2023-07-20T05:22:12;16.20;99.90
21306;DHT22;10812;51.838;5.838;2023-07-20T05:24:41;16.20;99.90
21306;DHT22;10812;51.838;5.838;2023-07-20T05:27:10;16.20;99.90
21306;DHT22;10812;51.838;5.838;2023-07-20T05:29:45;16.30;99.90
21306;DHT22;10812;51.838;5.838;2023-07-20T05:32:16;16.30;99.90
21306;DHT22;10812;51.838;5.838;2023-07-20T05:34:43;16.20;99.90
21306;DHT22;10812;51.838;5.838;2023-07-20T05:37:11;16.30;99.90
21306;DHT22;10812;51.838;5.838;2023-07-20T05:39:41;16.30;99.90
21306;DHT22;10812;51.838;5.838;2023-07-20T05:42:10;16.30;99.90
21306;DHT22;10812;51.838;5.838;2023-07-20T05:44:39;16.30;99.90
21306;DHT22;10812;51.838;5.838;2023-07-20T05:47:07;16.50;99.90
21306;DHT22;10812;51.838;5.838;2023-07-20T05:49:36;16.60;99.90
21306;DHT22;10812;51.838;5.838;2023-07-20T05:52:04;16.60;99.90
21306;DHT22;10812;51.838;5.838;2023-07-20T05:54:32;16.70;99.90
21306;DHT22;10812;51.838;5.838;2023-07-20T05:57:00;16.90;99.90
21306;DHT22;10812;51.838;5.838;2023-07-20T05:59:30;17.30;99.90
21306;DHT22;10812;51.838;5.838;2023-07-20T06:01:58;17.60;99.90
21306;DHT22;10812;51.838;5.838;2023-07-20T06:04:26;17.80;99.90
21306;DHT22;10812;51.838;5.838;2023-07-20T06:06:54;18.30;99.90
21306;DHT22;10812;51.838;5.838;2023-07-20T06:09:22;18.40;99.90
21306;DHT22;10812;51.838;5.838;2023-07-20T06:11:50;18.50;99.90
21306;DHT22;10812;51.838;5.838;2023-07-20T06:14:18;18.50;99.90
21306;DHT22;10812;51.838;5.838;2023-07-20T06:16:48;19.30;99.90
21306;DHT22;10812;51.838;5.838;2023-07-20T06:19:16;21.10;99.90
21306;DHT22;10812;51.838;5.838;2023-07-20T06:21:44;22.60;99.90
21306;DHT22;10812;51.838;5.838;2023-07-20T06:24:12;24.20;99.90
21306;DHT22;10812;51.838;5.838;2023-07-20T06:26:40;25.30;99.90
21306;DHT22;10812;51.838;5.838;2023-07-20T06:29:08;25.80;99.90
21306;DHT22;10812;51.838;5.838;2023-07-20T06:31:37;25.60;99.90
21306;DHT22;10812;51.838;5.838;2023-07-20T06:34:07;26.50;99.90
21306;DHT22;10812;51.838;5.838;2023-07-20T06:36:35;27.50;99.90
21306;DHT22;10812;51.838;5.838;2023-07-20T06:39:03;28.10;99.90
21306;DHT22;10812;51.838;5.838;2023-07-20T06:41:34;28.20;99.10
21306;DHT22;10812;51.838;5.838;2023-07-20T06:44:05;28.00;98.60
21306;DHT22;10812;51.838;5.838;2023-07-20T06:46:34;28.00;98.40
21306;DHT22;10812;51.838;5.838;2023-07-20T06:49:05;28.70;97.80
21306;DHT22;10812;51.838;5.838;2023-07-20T06:51:38;28.10;96.70
21306;DHT22;10812;51.838;5.838;2023-07-20T06:54:06;28.20;95.40
21306;DHT22;10812;51.838;5.838;2023-07-20T06:56:34;28.00;95.80
21306;DHT22;10812;51.838;5.838;2023-07-20T06:59:04;28.60;94.60
21306;DHT22;10812;51.838;5.838;2023-07-20T07:01:32;27.90;94.30
21306;DHT22;10812;51.838;5.838;2023-07-20T07:04:00;26.10;96.50
21306;DHT22;10812;51.838;5.838;2023-07-20T07:06:28;26.10;98.70
21306;DHT22;10812;51.838;5.838;2023-07-20T07:09:01;27.50;96.40
21306;DHT22;10812;51.838;5.838;2023-07-20T07:11:29;28.10;94.20
21306;DHT22;10812;51.838;5.838;2023-07-20T07:13:57;27.80;93.60
21306;DHT22;10812;51.838;5.838;2023-07-20T07:16:25;27.90;93.50
21306;DHT22;10812;51.838;5.838;2023-07-20T07:18:53;28.20;93.70
21306;DHT22;10812;51.838;5.838;2023-07-20T07:21:26;28.40;92.70
21306;DHT22;10812;51.838;5.838;2023-07-20T07:23:54;28.80;92.90
21306;DHT22;10812;51.838;5.838;2023-07-20T07:26:25;29.50;92.00
21306;DHT22;10812;51.838;5.838;2023-07-20T07:28:53;29.10;91.70
21306;DHT22;10812;51.838;5.838;2023-07-20T07:31:21;29.70;91.80
21306;DHT22;10812;51.838;5.838;2023-07-20T07:33:50;31.10;90.00
21306;DHT22;10812;51.838;5.838;2023-07-20T07:36:18;30.90;90.10
21306;DHT22;10812;51.838;5.838;2023-07-20T07:38:46;30.40;90.40
21306;DHT22;10812;51.838;5.838;2023-07-20T07:41:36;30.20;89.20
21306;DHT22;10812;51.838;5.838;2023-07-20T07:44:04;30.60;88.90
21306;DHT22;10812;51.838;5.838;2023-07-20T07:46:33;31.10;89.10
21306;DHT22;10812;51.838;5.838;2023-07-20T07:49:01;32.00;86.00
21306;DHT22;10812;51.838;5.838;2023-07-20T07:51:29;31.70;85.20
21306;DHT22;10812;51.838;5.838;2023-07-20T07:53:58;31.40;85.60
21306;DHT22;10812;51.838;5.838;2023-07-20T07:56:26;32.10;84.70
21306;DHT22;10812;51.838;5.838;2023-07-20T07:58:56;30.50;85.30
21306;DHT22;10812;51.838;5.838;2023-07-20T08:01:24;30.30;86.10
21306;DHT22;10812;51.838;5.838;2023-07-20T08:03:52;30.10;87.20
21306;DHT22;10812;51.838;5.838;2023-07-20T08:06:20;30.70;87.40
21306;DHT22;10812;51.838;5.838;2023-07-20T08:08:49;30.80;86.30
21306;DHT22;10812;51.838;5.838;2023-07-20T08:11:17;29.30;88.00
21306;DHT22;10812;51.838;5.838;2023-07-20T08:13:45;28.80;89.50
21306;DHT22;10812;51.838;5.838;2023-07-20T08:16:15;28.80;89.20
21306;DHT22;10812;51.838;5.838;2023-07-20T08:18:44;29.70;88.10
21306;DHT22;10812;51.838;5.838;2023-07-20T08:21:12;30.40;87.30
21306;DHT22;10812;51.838;5.838;2023-07-20T08:23:40;31.00;84.80
21306;DHT22;10812;51.838;5.838;2023-07-20T08:26:08;31.10;85.20
21306;DHT22;10812;51.838;5.838;2023-07-20T08:28:36;31.80;82.40
21306;DHT22;10812;51.838;5.838;2023-07-20T08:31:06;31.80;80.60
21306;DHT22;10812;51.838;5.838;2023-07-20T08:33:35;31.90;82.50
21306;DHT22;10812;51.838;5.838;2023-07-20T08:36:04;31.70;80.10
21306;DHT22;10812;51.838;5.838;2023-07-20T08:38:33;31.80;81.10
21306;DHT22;10812;51.838;5.838;2023-07-20T08:41:01;31.70;81.20
21306;DHT22;10812;51.838;5.838;2023-07-20T08:43:30;31.20;81.30
21306;DHT22;10812;51.838;5.838;2023-07-20T08:45:59;30.80;81.90
21306;DHT22;10812;51.838;5.838;2023-07-20T08:48:28;31.00;81.90
21306;DHT22;10812;51.838;5.838;2023-07-20T08:51:00;31.20;80.80
21306;DHT22;10812;51.838;5.838;2023-07-20T08:53:30;29.80;81.70
21306;DHT22;10812;51.838;5.838;2023-07-20T08:56:01;28.30;83.90
21306;DHT22;10812;51.838;5.838;2023-07-20T08:58:30;26.30;88.80
21306;DHT22;10812;51.838;5.838;2023-07-20T09:00:59;25.10;91.30
21306;DHT22;10812;51.838;5.838;2023-07-20T09:03:28;24.60;93.10
21306;DHT22;10812;51.838;5.838;2023-07-20T09:05:56;24.10;94.20
21306;DHT22;10812;51.838;5.838;2023-07-20T09:08:26;24.00;94.80
21306;DHT22;10812;51.838;5.838;2023-07-20T09:10:54;24.70;94.60
21306;DHT22;10812;51.838;5.838;2023-07-20T09:13:22;26.30;92.90
21306;DHT22;10812;51.838;5.838;2023-07-20T09:15:53;27.10;91.60
21306;DHT22;10812;51.838;5.838;2023-07-20T09:18:25;27.80;91.10
21306;DHT22;10812;51.838;5.838;2023-07-20T09:20:54;27.60;89.50
21306;DHT22;10812;51.838;5.838;2023-07-20T09:23:32;27.50;89.30
21306;DHT22;10812;51.838;5.838;2023-07-20T09:26:01;27.00;90.60
21306;DHT22;10812;51.838;5.838;2023-07-20T09:28:29;26.60;90.80
21306;DHT22;10812;51.838;5.838;2023-07-20T09:30:57;25.80;91.50
21306;DHT22;10812;51.838;5.838;2023-07-20T09:33:25;25.40;92.90
21306;DHT22;10812;51.838;5.838;2023-07-20T09:35:54;25.20;93.00
21306;DHT22;10812;51.838;5.838;2023-07-20T09:38:50;25.20;92.90
21306;DHT22;10812;51.838;5.838;2023-07-20T09:41:21;25.40;92.00
21306;DHT22;10812;51.838;5.838;2023-07-20T09:43:53;25.30;92.90
21306;DHT22;10812;51.838;5.838;2023-07-20T09:46:21;25.50;92.90
21306;DHT22;10812;51.838;5.838;2023-07-20T09:48:52;25.60;92.90
21306;DHT22;10812;51.838;5.838;2023-07-20T09:51:24;25.60;92.50
21306;DHT22;10812;51.838;5.838;2023-07-20T09:53:54;26.40;92.50
21306;DHT22;10812;51.838;5.838;2023-07-20T09:56:22;27.50;91.30
21306;DHT22;10812;51.838;5.838;2023-07-20T09:58:52;28.00;89.00
21306;DHT22;10812;51.838;5.838;2023-07-20T10:01:21;27.60;89.90
21306;DHT22;10812;51.838;5.838;2023-07-20T10:03:53;27.50;90.10
21306;DHT22;10812;51.838;5.838;2023-07-20T10:06:24;26.80;90.60
21306;DHT22;10812;51.838;5.838;2023-07-20T10:08:55;26.20;91.00
21306;DHT22;10812;51.838;5.838;2023-07-20T10:11:26;25.60;91.60
21306;DHT22;10812;51.838;5.838;2023-07-20T10:13:59;26.00;91.90
21306;DHT22;10812;51.838;5.838;2023-07-20T10:16:30;25.90;90.90
21306;DHT22;10812;51.838;5.838;2023-07-20T10:19:25;25.60;91.80
21306;DHT22;10812;51.838;5.838;2023-07-20T10:21:57;25.20;92.70
21306;DHT22;10812;51.838;5.838;2023-07-20T10:24:32;25.40;92.80
21306;DHT22;10812;51.838;5.838;2023-07-20T10:27:00;25.80;91.80
21306;DHT22;10812;51.838;5.838;2023-07-20T10:29:29;25.70;92.40
21306;DHT22;10812;51.838;5.838;2023-07-20T10:31:58;26.40;92.20
21306;DHT22;10812;51.838;5.838;2023-07-20T10:34:26;26.70;91.40
21306;DHT22;10812;51.838;5.838;2023-07-20T10:36:54;26.70;90.60
21306;DHT22;10812;51.838;5.838;2023-07-20T10:39:23;26.50;90.00
21306;DHT22;10812;51.838;5.838;2023-07-20T10:42:02;26.20;90.70
21306;DHT22;10812;51.838;5.838;2023-07-20T10:44:30;26.20;91.70
21306;DHT22;10812;51.838;5.838;2023-07-20T10:46:59;25.70;90.80
21306;DHT22;10812;51.838;5.838;2023-07-20T10:49:29;25.30;91.60
21306;DHT22;10812;51.838;5.838;2023-07-20T10:52:04;25.00;91.10
21306;DHT22;10812;51.838;5.838;2023-07-20T10:54:34;24.40;92.70
21306;DHT22;10812;51.838;5.838;2023-07-20T10:57:23;24.10;93.40
21306;DHT22;10812;51.838;5.838;2023-07-20T10:59:51;24.00;94.40
21306;DHT22;10812;51.838;5.838;2023-07-20T11:02:19;24.10;94.80
21306;DHT22;10812;51.838;5.838;2023-07-20T11:04:48;24.20;95.00
21306;DHT22;10812;51.838;5.838;2023-07-20T11:07:20;24.50;95.50
21306;DHT22;10812;51.838;5.838;2023-07-20T11:10:13;25.40;95.00
21306;DHT22;10812;51.838;5.838;2023-07-20T11:13:20;26.30;93.30
21306;DHT22;10812;51.838;5.838;2023-07-20T11:16:02;26.30;93.20
21306;DHT22;10812;51.838;5.838;2023-07-20T11:18:33;27.20;92.80
21306;DHT22;10812;51.838;5.838;2023-07-20T11:21:08;27.50;92.10
21306;DHT22;10812;51.838;5.838;2023-07-20T11:23:38;27.60;91.40
21306;DHT22;10812;51.838;5.838;2023-07-20T11:26:06;27.50;91.60
21306;DHT22;10812;51.838;5.838;2023-07-20T11:28:37;27.30;91.70
21306;DHT22;10812;51.838;5.838;2023-07-20T11:31:04;27.50;91.80
21306;DHT22;10812;51.838;5.838;2023-07-20T11:33:33;27.80;90.60
21306;DHT22;10812;51.838;5.838;2023-07-20T11:36:01;27.70;91.30
21306;DHT22;10812;51.838;5.838;2023-07-20T11:38:49;27.50;91.70
21306;DHT22;10812;51.838;5.838;2023-07-20T11:41:17;27.60;89.90
21306;DHT22;10812;51.838;5.838;2023-07-20T11:43:48;27.20;90.20
21306;DHT22;10812;51.838;5.838;2023-07-20T11:46:16;26.80;90.10
21306;DHT22;10812;51.838;5.838;2023-07-20T11:48:44;25.70;91.70
21306;DHT22;10812;51.838;5.838;2023-07-20T11:51:15;25.40;92.60
21306;DHT22;10812;51.838;5.838;2023-07-20T11:53:45;25.20;92.70
21306;DHT22;10812;51.838;5.838;2023-07-20T11:56:14;24.80;94.20
21306;DHT22;10812;51.838;5.838;2023-07-20T11:58:43;24.80;93.60
21306;DHT22;10812;51.838;5.838;2023-07-20T12:01:13;24.80;94.90
21306;DHT22;10812;51.838;5.838;2023-07-20T12:03:42;24.50;94.80
21306;DHT22;10812;51.838;5.838;2023-07-20T12:06:14;24.30;94.80
21306;DHT22;10812;51.838;5.838;2023-07-20T12:08:44;24.00;95.60
21306;DHT22;10812;51.838;5.838;2023-07-20T12:11:12;23.60;96.50
21306;DHT22;10812;51.838;5.838;2023-07-20T12:13:43;23.50;96.60
21306;DHT22;10812;51.838;5.838;2023-07-20T12:16:15;23.90;97.10
21306;DHT22;10812;51.838;5.838;2023-07-20T12:18:43;24.10;96.30
21306;DHT22;10812;51.838;5.838;2023-07-20T12:21:12;24.00;96.00
21306;DHT22;10812;51.838;5.838;2023-07-20T12:23:41;24.00;95.70
21306;DHT22;10812;51.838;5.838;2023-07-20T12:26:10;24.10;95.80
21306;DHT22;10812;51.838;5.838;2023-07-20T12:28:39;23.90;95.80
21306;DHT22;10812;51.838;5.838;2023-07-20T12:31:09;24.00;96.40
21306;DHT22;10812;51.838;5.838;2023-07-20T12:33:38;23.80;96.20
21306;DHT22;10812;51.838;5.838;2023-07-20T12:36:07;24.20;95.50
21306;DHT22;10812;51.838;5.838;2023-07-20T12:38:35;24.40;95.80
21306;DHT22;10812;51.838;5.838;2023-07-20T12:41:03;24.30;95.00
21306;DHT22;10812;51.838;5.838;2023-07-20T12:43:31;24.20;94.60
21306;DHT22;10812;51.838;5.838;2023-07-20T12:46:00;24.30;95.70
21306;DHT22;10812;51.838;5.838;2023-07-20T12:48:28;24.70;95.30
21306;DHT22;10812;51.838;5.838;2023-07-20T12:50:57;24.70;95.00
21306;DHT22;10812;51.838;5.838;2023-07-20T12:53:25;25.00;94.00
21306;DHT22;10812;51.838;5.838;2023-07-20T12:55:54;24.90;93.60
21306;DHT22;10812;51.838;5.838;2023-07-20T12:58:22;25.10;93.40
21306;DHT22;10812;51.838;5.838;2023-07-20T13:00:50;24.90;94.00
21306;DHT22;10812;51.838;5.838;2023-07-20T13:03:18;24.70;93.70
21306;DHT22;10812;51.838;5.838;2023-07-20T13:05:49;24.50;94.00
21306;DHT22;10812;51.838;5.838;2023-07-20T13:08:23;24.50;93.90
21306;DHT22;10812;51.838;5.838;2023-07-20T13:10:52;24.40;93.50
21306;DHT22;10812;51.838;5.838;2023-07-20T13:13:20;24.30;93.70
21306;DHT22;10812;51.838;5.838;2023-07-20T13:15:49;24.40;93.80
21306;DHT22;10812;51.838;5.838;2023-07-20T13:18:17;24.50;93.90
21306;DHT22;10812;51.838;5.838;2023-07-20T13:20:45;24.70;93.70
21306;DHT22;10812;51.838;5.838;2023-07-20T13:23:13;24.60;93.70
21306;DHT22;10812;51.838;5.838;2023-07-20T13:25:43;24.90;94.10
21306;DHT22;10812;51.838;5.838;2023-07-20T13:28:11;25.20;93.90
21306;DHT22;10812;51.838;5.838;2023-07-20T13:30:39;25.40;93.70
21306;DHT22;10812;51.838;5.838;2023-07-20T13:33:07;25.60;92.50
21306;DHT22;10812;51.838;5.838;2023-07-20T13:35:39;25.70;92.50
21306;DHT22;10812;51.838;5.838;2023-07-20T13:38:14;25.30;93.10
21306;DHT22;10812;51.838;5.838;2023-07-20T13:40:44;25.10;93.40
21306;DHT22;10812;51.838;5.838;2023-07-20T13:43:12;24.90;93.30
21306;DHT22;10812;51.838;5.838;2023-07-20T13:45:42;24.70;93.40
21306;DHT22;10812;51.838;5.838;2023-07-20T13:48:10;24.50;93.90
21306;DHT22;10812;51.838;5.838;2023-07-20T13:50:46;24.60;93.90
21306;DHT22;10812;51.838;5.838;2023-07-20T13:53:27;24.60;93.70
21306;DHT22;10812;51.838;5.838;2023-07-20T13:56:00;25.00;92.70
21306;DHT22;10812;51.838;5.838;2023-07-20T13:58:31;25.10;92.50
21306;DHT22;10812;51.838;5.838;2023-07-20T14:00:59;25.10;92.10
21306;DHT22;10812;51.838;5.838;2023-07-20T14:03:27;24.80;92.30
21306;DHT22;10812;51.838;5.838;2023-07-20T14:05:55;24.70;92.70
21306;DHT22;10812;51.838;5.838;2023-07-20T14:08:26;24.60;92.10
21306;DHT22;10812;51.838;5.838;2023-07-20T14:10:57;24.70;92.00
21306;DHT22;10812;51.838;5.838;2023-07-20T14:13:31;24.70;91.40
21306;DHT22;10812;51.838;5.838;2023-07-20T14:16:13;24.60;91.60
21306;DHT22;10812;51.838;5.838;2023-07-20T14:18:41;24.60;91.60
21306;DHT22;10812;51.838;5.838;2023-07-20T14:21:16;24.90;91.40
21306;DHT22;10812;51.838;5.838;2023-07-20T14:23:45;25.10;91.50
21306;DHT22;10812;51.838;5.838;2023-07-20T14:26:20;25.30;91.80
21306;DHT22;10812;51.838;5.838;2023-07-20T14:28:50;25.40;91.00
21306;DHT22;10812;51.838;5.838;2023-07-20T14:31:18;25.30;90.80
21306;DHT22;10812;51.838;5.838;2023-07-20T14:33:47;25.20;92.00
21306;DHT22;10812;51.838;5.838;2023-07-20T14:36:16;25.40;91.40
21306;DHT22;10812;51.838;5.838;2023-07-20T14:38:45;25.50;91.70
21306;DHT22;10812;51.838;5.838;2023-07-20T14:41:13;25.50;91.20
21306;DHT22;10812;51.838;5.838;2023-07-20T14:43:41;25.20;91.60
21306;DHT22;10812;51.838;5.838;2023-07-20T14:46:10;24.80;91.60
21306;DHT22;10812;51.838;5.838;2023-07-20T14:48:38;24.90;92.00
21306;DHT22;10812;51.838;5.838;2023-07-20T14:51:07;24.90;92.00
21306;DHT22;10812;51.838;5.838;2023-07-20T14:53:35;25.00;91.60
21306;DHT22;10812;51.838;5.838;2023-07-20T14:58:54;24.80;92.20
21306;DHT22;10812;51.838;5.838;2023-07-20T15:01:24;24.80;91.50
21306;DHT22;10812;51.838;5.838;2023-07-20T15:03:52;24.80;92.10
21306;DHT22;10812;51.838;5.838;2023-07-20T15:06:24;24.80;92.40
21306;DHT22;10812;51.838;5.838;2023-07-20T15:08:53;24.90;91.70
21306;DHT22;10812;51.838;5.838;2023-07-20T15:11:24;24.90;92.00
21306;DHT22;10812;51.838;5.838;2023-07-20T15:13:53;24.60;91.90
21306;DHT22;10812;51.838;5.838;2023-07-20T15:16:21;24.50;92.40
21306;DHT22;10812;51.838;5.838;2023-07-20T15:18:51;24.30;92.70
21306;DHT22;10812;51.838;5.838;2023-07-20T15:21:19;24.10;92.80
21306;DHT22;10812;51.838;5.838;2023-07-20T15:23:47;24.10;92.80
21306;DHT22;10812;51.838;5.838;2023-07-20T15:26:15;24.40;92.80
21306;DHT22;10812;51.838;5.838;2023-07-20T15:28:43;24.70;92.80
21306;DHT22;10812;51.838;5.838;2023-07-20T15:31:11;24.90;92.40
21306;DHT22;10812;51.838;5.838;2023-07-20T15:33:39;24.90;92.40
21306;DHT22;10812;51.838;5.838;2023-07-20T15:36:09;25.00;92.20
21306;DHT22;10812;51.838;5.838;2023-07-20T15:38:37;24.50;92.00
21306;DHT22;10812;51.838;5.838;2023-07-20T15:41:08;24.50;91.90
21306;DHT22;10812;51.838;5.838;2023-07-20T15:43:37;24.60;91.90
21306;DHT22;10812;51.838;5.838;2023-07-20T15:46:46;24.90;91.90
21306;DHT22;10812;51.838;5.838;2023-07-20T15:49:15;24.60;92.00
21306;DHT22;10812;51.838;5.838;2023-07-20T15:51:48;24.70;92.70
21306;DHT22;10812;51.838;5.838;2023-07-20T15:54:16;24.80;92.90
21306;DHT22;10812;51.838;5.838;2023-07-20T15:56:44;24.60;92.10
21306;DHT22;10812;51.838;5.838;2023-07-20T15:59:14;24.60;92.20
21306;DHT22;10812;51.838;5.838;2023-07-20T16:01:43;24.50;91.90
21306;DHT22;10812;51.838;5.838;2023-07-20T16:04:13;24.30;92.50